sensor_id;sensor_type;location;lat;lon;timestamp;P1;durP1;ratioP1;P2;durP2;ratioP2
21754;SDS011;11039;50.028;19.938;2023-04-21T00:02:00;10.70;;;6.60;;
21754;SDS011;11039;50.028;19.938;2023-04-21T00:04:27;9.43;;;6.18;;
21754;SDS011;11039;50.028;19.938;2023-04-21T00:06:53;11.80;;;6.40;;
21754;SDS011;11039;50.028;19.938;2023-04-21T00:09:19;10.63;;;6.38;;
21754;SDS011;11039;50.028;19.938;2023-04-21T00:11:46;10.27;;;6.90;;
21754;SDS011;11039;50.028;19.938;2023-04-21T00:14:12;9.05;;;6.47;;
21754;SDS011;11039;50.028;19.938;2023-04-21T00:16:38;9.27;;;6.13;;
21754;SDS011;11039;50.028;19.938;2023-04-21T00:19:04;11.18;;;6.88;;
21754;SDS011;11039;50.028;19.938;2023-04-21T00:21:33;11.05;;;6.70;;
21754;SDS011;11039;50.028;19.938;2023-04-21T00:24:00;11.50;;;6.35;;
21754;SDS011;11039;50.028;19.938;2023-04-21T00:26:26;10.68;;;6.75;;
21754;SDS011;11039;50.028;19.938;2023-04-21T00:28:52;10.48;;;6.80;;
21754;SDS011;11039;50.028;19.938;2023-04-21T00:31:18;9.95;;;6.72;;
21754;SDS011;11039;50.028;19.938;2023-04-21T00:33:44;10.35;;;6.55;;
21754;SDS011;11039;50.028;19.938;2023-04-21T00:36:10;9.68;;;6.60;;
21754;SDS011;11039;50.028;19.938;2023-04-21T00:38:36;11.02;;;6.53;;
21754;SDS011;11039;50.028;19.938;2023-04-21T00:41:02;9.55;;;6.60;;
21754;SDS011;11039;50.028;19.938;2023-04-21T00:43:28;9.73;;;6.28;;
21754;SDS011;11039;50.028;19.938;2023-04-21T00:45:54;10.73;;;6.57;;
21754;SDS011;11039;50.028;19.938;2023-04-21T00:48:20;10.85;;;6.55;;
21754;SDS011;11039;50.028;19.938;2023-04-21T00:50:46;10.32;;;6.82;;
21754;SDS011;11039;50.028;19.938;2023-04-21T00:53:13;9.65;;;6.28;;
21754;SDS011;11039;50.028;19.938;2023-04-21T00:55:39;8.52;;;6.07;;
21754;SDS011;11039;50.028;19.938;2023-04-21T00:58:06;11.63;;;6.72;;
21754;SDS011;11039;50.028;19.938;2023-04-21T01:00:32;10.63;;;6.45;;
21754;SDS011;11039;50.028;19.938;2023-04-21T01:02:58;9.27;;;6.78;;
21754;SDS011;11039;50.028;19.938;2023-04-21T01:05:25;8.88;;;6.47;;
21754;SDS011;11039;50.028;19.938;2023-04-21T01:07:51;12.85;;;6.35;;
21754;SDS011;11039;50.028;19.938;2023-04-21T01:10:17;10.27;;;6.95;;
21754;SDS011;11039;50.028;19.938;2023-04-21T01:12:44;7.85;;;6.13;;
21754;SDS011;11039;50.028;19.938;2023-04-21T01:15:11;10.50;;;7.00;;
21754;SDS011;11039;50.028;19.938;2023-04-21T01:17:37;10.50;;;6.90;;
21754;SDS011;11039;50.028;19.938;2023-04-21T01:20:05;10.77;;;6.63;;
21754;SDS011;11039;50.028;19.938;2023-04-21T01:22:33;9.63;;;6.50;;
21754;SDS011;11039;50.028;19.938;2023-04-21T01:25:01;7.32;;;6.05;;
21754;SDS011;11039;50.028;19.938;2023-04-21T01:27:27;13.10;;;7.05;;
21754;SDS011;11039;50.028;19.938;2023-04-21T01:29:53;8.70;;;6.50;;
21754;SDS011;11039;50.028;19.938;2023-04-21T01:32:24;8.95;;;6.68;;
21754;SDS011;11039;50.028;19.938;2023-04-21T01:34:51;8.63;;;6.68;;
21754;SDS011;11039;50.028;19.938;2023-04-21T01:37:18;11.30;;;6.53;;
21754;SDS011;11039;50.028;19.938;2023-04-21T01:39:46;9.68;;;6.68;;
21754;SDS011;11039;50.028;19.938;2023-04-21T01:42:15;9.65;;;6.50;;
21754;SDS011;11039;50.028;19.938;2023-04-21T01:44:41;10.25;;;7.05;;
21754;SDS011;11039;50.028;19.938;2023-04-21T01:47:07;9.18;;;6.25;;
21754;SDS011;11039;50.028;19.938;2023-04-21T01:49:33;10.43;;;6.93;;
21754;SDS011;11039;50.028;19.938;2023-04-21T01:51:59;8.80;;;6.63;;
21754;SDS011;11039;50.028;19.938;2023-04-21T01:54:25;8.90;;;6.78;;
21754;SDS011;11039;50.028;19.938;2023-04-21T01:56:51;9.40;;;6.90;;
21754;SDS011;11039;50.028;19.938;2023-04-21T01:59:17;9.15;;;6.55;;
21754;SDS011;11039;50.028;19.938;2023-04-21T02:01:43;8.15;;;6.22;;
21754;SDS011;11039;50.028;19.938;2023-04-21T02:04:09;9.48;;;6.90;;
21754;SDS011;11039;50.028;19.938;2023-04-21T02:06:35;8.80;;;6.85;;
21754;SDS011;11039;50.028;19.938;2023-04-21T02:09:01;9.07;;;6.80;;
21754;SDS011;11039;50.028;19.938;2023-04-21T02:11:27;9.35;;;6.60;;
21754;SDS011;11039;50.028;19.938;2023-04-21T02:13:54;10.02;;;6.88;;
21754;SDS011;11039;50.028;19.938;2023-04-21T02:16:20;9.43;;;7.05;;
21754;SDS011;11039;50.028;19.938;2023-04-21T02:18:50;9.15;;;6.90;;
21754;SDS011;11039;50.028;19.938;2023-04-21T02:21:16;9.43;;;6.97;;
21754;SDS011;11039;50.028;19.938;2023-04-21T02:23:42;9.18;;;7.18;;
21754;SDS011;11039;50.028;19.938;2023-04-21T02:26:08;9.73;;;6.57;;
21754;SDS011;11039;50.028;19.938;2023-04-21T02:28:34;9.38;;;7.20;;
21754;SDS011;11039;50.028;19.938;2023-04-21T02:31:00;10.38;;;7.43;;
21754;SDS011;11039;50.028;19.938;2023-04-21T02:33:26;10.60;;;7.28;;
21754;SDS011;11039;50.028;19.938;2023-04-21T02:35:52;10.20;;;6.72;;
21754;SDS011;11039;50.028;19.938;2023-04-21T02:38:18;8.55;;;6.50;;
21754;SDS011;11039;50.028;19.938;2023-04-21T02:40:44;7.88;;;6.60;;
21754;SDS011;11039;50.028;19.938;2023-04-21T02:43:10;9.68;;;6.82;;
21754;SDS011;11039;50.028;19.938;2023-04-21T02:45:36;9.85;;;6.80;;
21754;SDS011;11039;50.028;19.938;2023-04-21T02:48:02;11.27;;;7.22;;
21754;SDS011;11039;50.028;19.938;2023-04-21T02:50:28;9.13;;;6.97;;
21754;SDS011;11039;50.028;19.938;2023-04-21T02:52:55;9.25;;;6.65;;
21754;SDS011;11039;50.028;19.938;2023-04-21T02:55:21;9.00;;;7.07;;
21754;SDS011;11039;50.028;19.938;2023-04-21T02:57:47;10.82;;;6.78;;
21754;SDS011;11039;50.028;19.938;2023-04-21T03:00:13;9.10;;;7.03;;
21754;SDS011;11039;50.028;19.938;2023-04-21T03:02:39;9.10;;;7.03;;
21754;SDS011;11039;50.028;19.938;2023-04-21T03:05:05;9.55;;;6.60;;
21754;SDS011;11039;50.028;19.938;2023-04-21T03:07:32;8.63;;;6.45;;
21754;SDS011;11039;50.028;19.938;2023-04-21T03:09:58;10.02;;;6.82;;
21754;SDS011;11039;50.028;19.938;2023-04-21T03:12:24;8.73;;;6.47;;
21754;SDS011;11039;50.028;19.938;2023-04-21T03:14:50;9.90;;;7.00;;
21754;SDS011;11039;50.028;19.938;2023-04-21T03:17:16;8.82;;;6.80;;
21754;SDS011;11039;50.028;19.938;2023-04-21T03:19:42;8.90;;;7.00;;
21754;SDS011;11039;50.028;19.938;2023-04-21T03:22:08;10.10;;;6.97;;
21754;SDS011;11039;50.028;19.938;2023-04-21T03:24:34;9.68;;;7.05;;
21754;SDS011;11039;50.028;19.938;2023-04-21T03:27:00;8.65;;;6.70;;
21754;SDS011;11039;50.028;19.938;2023-04-21T03:29:26;8.98;;;6.65;;
21754;SDS011;11039;50.028;19.938;2023-04-21T03:31:52;9.85;;;6.68;;
21754;SDS011;11039;50.028;19.938;2023-04-21T03:34:18;10.27;;;6.60;;
21754;SDS011;11039;50.028;19.938;2023-04-21T03:36:44;10.73;;;7.43;;
21754;SDS011;11039;50.028;19.938;2023-04-21T03:39:10;10.18;;;6.53;;
21754;SDS011;11039;50.028;19.938;2023-04-21T03:41:36;9.73;;;6.97;;
21754;SDS011;11039;50.028;19.938;2023-04-21T03:44:02;9.73;;;7.10;;
21754;SDS011;11039;50.028;19.938;2023-04-21T03:46:28;10.52;;;7.22;;
21754;SDS011;11039;50.028;19.938;2023-04-21T03:48:54;11.30;;;7.32;;
21754;SDS011;11039;50.028;19.938;2023-04-21T03:51:20;10.18;;;7.50;;
21754;SDS011;11039;50.028;19.938;2023-04-21T03:53:47;10.13;;;7.07;;
21754;SDS011;11039;50.028;19.938;2023-04-21T03:56:14;9.63;;;7.18;;
21754;SDS011;11039;50.028;19.938;2023-04-21T03:58:40;9.68;;;7.25;;
21754;SDS011;11039;50.028;19.938;2023-04-21T04:01:06;10.15;;;7.35;;
21754;SDS011;11039;50.028;19.938;2023-04-21T04:03:34;9.73;;;7.30;;
21754;SDS011;11039;50.028;19.938;2023-04-21T04:06:00;10.75;;;7.35;;
21754;SDS011;11039;50.028;19.938;2023-04-21T04:08:28;11.38;;;7.00;;
21754;SDS011;11039;50.028;19.938;2023-04-21T04:10:54;9.88;;;7.20;;
21754;SDS011;11039;50.028;19.938;2023-04-21T04:13:20;9.63;;;6.85;;
21754;SDS011;11039;50.028;19.938;2023-04-21T04:15:48;9.32;;;6.80;;
21754;SDS011;11039;50.028;19.938;2023-04-21T04:18:14;10.70;;;7.07;;
21754;SDS011;11039;50.028;19.938;2023-04-21T04:20:40;9.00;;;7.30;;
21754;SDS011;11039;50.028;19.938;2023-04-21T04:23:06;10.43;;;6.97;;
21754;SDS011;11039;50.028;19.938;2023-04-21T04:25:32;9.88;;;7.32;;
21754;SDS011;11039;50.028;19.938;2023-04-21T04:27:58;8.65;;;6.97;;
21754;SDS011;11039;50.028;19.938;2023-04-21T04:30:24;8.93;;;7.20;;
21754;SDS011;11039;50.028;19.938;2023-04-21T04:32:53;9.63;;;7.32;;
21754;SDS011;11039;50.028;19.938;2023-04-21T04:35:21;8.52;;;6.70;;
21754;SDS011;11039;50.028;19.938;2023-04-21T04:37:48;9.25;;;7.30;;
21754;SDS011;11039;50.028;19.938;2023-04-21T04:40:14;10.75;;;7.10;;
21754;SDS011;11039;50.028;19.938;2023-04-21T04:42:41;9.25;;;6.68;;
21754;SDS011;11039;50.028;19.938;2023-04-21T04:45:09;8.23;;;6.47;;
21754;SDS011;11039;50.028;19.938;2023-04-21T04:47:36;9.30;;;7.35;;
21754;SDS011;11039;50.028;19.938;2023-04-21T04:50:02;9.63;;;6.82;;
21754;SDS011;11039;50.028;19.938;2023-04-21T04:52:28;8.73;;;6.95;;
21754;SDS011;11039;50.028;19.938;2023-04-21T04:54:54;8.93;;;6.93;;
21754;SDS011;11039;50.028;19.938;2023-04-21T04:57:20;9.68;;;7.35;;
21754;SDS011;11039;50.028;19.938;2023-04-21T04:59:47;10.77;;;7.65;;
21754;SDS011;11039;50.028;19.938;2023-04-21T05:02:13;9.45;;;7.00;;
21754;SDS011;11039;50.028;19.938;2023-04-21T05:04:40;9.35;;;7.00;;
21754;SDS011;11039;50.028;19.938;2023-04-21T05:07:06;9.13;;;7.15;;
21754;SDS011;11039;50.028;19.938;2023-04-21T05:09:32;9.95;;;7.80;;
21754;SDS011;11039;50.028;19.938;2023-04-21T05:11:59;9.20;;;7.13;;
21754;SDS011;11039;50.028;19.938;2023-04-21T05:14:25;10.55;;;7.93;;
21754;SDS011;11039;50.028;19.938;2023-04-21T05:16:51;10.68;;;7.45;;
21754;SDS011;11039;50.028;19.938;2023-04-21T05:19:18;9.43;;;7.03;;
21754;SDS011;11039;50.028;19.938;2023-04-21T05:21:44;10.65;;;6.97;;
21754;SDS011;11039;50.028;19.938;2023-04-21T05:24:10;9.20;;;7.30;;
21754;SDS011;11039;50.028;19.938;2023-04-21T05:26:36;8.65;;;6.70;;
21754;SDS011;11039;50.028;19.938;2023-04-21T05:29:02;9.35;;;7.53;;
21754;SDS011;11039;50.028;19.938;2023-04-21T05:31:28;9.90;;;7.35;;
21754;SDS011;11039;50.028;19.938;2023-04-21T05:33:54;9.95;;;7.20;;
21754;SDS011;11039;50.028;19.938;2023-04-21T05:36:20;9.20;;;7.38;;
21754;SDS011;11039;50.028;19.938;2023-04-21T05:38:48;10.15;;;7.60;;
21754;SDS011;11039;50.028;19.938;2023-04-21T05:41:14;10.43;;;7.50;;
21754;SDS011;11039;50.028;19.938;2023-04-21T05:43:40;9.95;;;7.47;;
21754;SDS011;11039;50.028;19.938;2023-04-21T05:46:10;10.30;;;6.85;;
21754;SDS011;11039;50.028;19.938;2023-04-21T05:48:36;8.98;;;6.70;;
21754;SDS011;11039;50.028;19.938;2023-04-21T05:51:08;9.50;;;7.53;;
21754;SDS011;11039;50.028;19.938;2023-04-21T05:53:35;9.60;;;7.47;;
21754;SDS011;11039;50.028;19.938;2023-04-21T05:56:01;9.20;;;7.22;;
21754;SDS011;11039;50.028;19.938;2023-04-21T05:58:27;9.35;;;7.30;;
21754;SDS011;11039;50.028;19.938;2023-04-21T06:00:53;11.07;;;7.68;;
21754;SDS011;11039;50.028;19.938;2023-04-21T06:03:20;11.43;;;7.88;;
21754;SDS011;11039;50.028;19.938;2023-04-21T06:05:46;9.00;;;7.40;;
21754;SDS011;11039;50.028;19.938;2023-04-21T06:08:12;9.68;;;6.90;;
21754;SDS011;11039;50.028;19.938;2023-04-21T06:10:38;10.25;;;7.80;;
21754;SDS011;11039;50.028;19.938;2023-04-21T06:13:04;9.45;;;7.35;;
21754;SDS011;11039;50.028;19.938;2023-04-21T06:15:30;9.60;;;7.38;;
21754;SDS011;11039;50.028;19.938;2023-04-21T06:17:56;9.50;;;7.28;;
21754;SDS011;11039;50.028;19.938;2023-04-21T06:20:22;10.50;;;7.88;;
21754;SDS011;11039;50.028;19.938;2023-04-21T06:22:48;9.18;;;7.35;;
21754;SDS011;11039;50.028;19.938;2023-04-21T06:25:14;11.57;;;7.18;;
21754;SDS011;11039;50.028;19.938;2023-04-21T06:27:40;9.95;;;7.65;;
21754;SDS011;11039;50.028;19.938;2023-04-21T06:30:06;10.15;;;7.75;;
21754;SDS011;11039;50.028;19.938;2023-04-21T06:32:32;10.00;;;7.32;;
21754;SDS011;11039;50.028;19.938;2023-04-21T06:34:59;8.95;;;7.30;;
21754;SDS011;11039;50.028;19.938;2023-04-21T06:37:25;9.65;;;7.25;;
21754;SDS011;11039;50.028;19.938;2023-04-21T06:39:51;9.40;;;7.40;;
21754;SDS011;11039;50.028;19.938;2023-04-21T06:42:17;9.70;;;7.55;;
21754;SDS011;11039;50.028;19.938;2023-04-21T06:44:44;11.10;;;7.50;;
21754;SDS011;11039;50.028;19.938;2023-04-21T06:47:10;9.02;;;7.30;;
21754;SDS011;11039;50.028;19.938;2023-04-21T06:49:36;13.05;;;7.35;;
21754;SDS011;11039;50.028;19.938;2023-04-21T06:52:02;10.85;;;7.72;;
21754;SDS011;11039;50.028;19.938;2023-04-21T06:54:28;12.30;;;7.85;;
21754;SDS011;11039;50.028;19.938;2023-04-21T06:56:54;10.57;;;6.70;;
21754;SDS011;11039;50.028;19.938;2023-04-21T06:59:21;10.13;;;6.82;;
21754;SDS011;11039;50.028;19.938;2023-04-21T07:01:47;8.00;;;6.68;;
21754;SDS011;11039;50.028;19.938;2023-04-21T07:04:16;8.57;;;6.60;;
21754;SDS011;11039;50.028;19.938;2023-04-21T07:06:42;10.45;;;7.60;;
21754;SDS011;11039;50.028;19.938;2023-04-21T07:09:08;10.20;;;7.15;;
21754;SDS011;11039;50.028;19.938;2023-04-21T07:11:34;9.32;;;7.07;;
21754;SDS011;11039;50.028;19.938;2023-04-21T07:14:00;14.52;;;9.02;;
21754;SDS011;11039;50.028;19.938;2023-04-21T07:16:29;16.92;;;10.02;;
21754;SDS011;11039;50.028;19.938;2023-04-21T07:18:55;16.63;;;10.98;;
21754;SDS011;11039;50.028;19.938;2023-04-21T07:21:21;20.85;;;10.23;;
21754;SDS011;11039;50.028;19.938;2023-04-21T07:23:47;15.13;;;10.07;;
21754;SDS011;11039;50.028;19.938;2023-04-21T07:26:13;16.08;;;9.82;;
21754;SDS011;11039;50.028;19.938;2023-04-21T07:28:40;19.90;;;10.55;;
21754;SDS011;11039;50.028;19.938;2023-04-21T07:31:06;14.85;;;9.77;;
21754;SDS011;11039;50.028;19.938;2023-04-21T07:33:32;22.55;;;11.25;;
21754;SDS011;11039;50.028;19.938;2023-04-21T07:35:58;22.90;;;11.18;;
21754;SDS011;11039;50.028;19.938;2023-04-21T07:38:24;19.83;;;9.80;;
21754;SDS011;11039;50.028;19.938;2023-04-21T07:40:50;17.48;;;10.65;;
21754;SDS011;11039;50.028;19.938;2023-04-21T07:43:16;20.25;;;10.30;;
21754;SDS011;11039;50.028;19.938;2023-04-21T07:45:43;16.55;;;9.48;;
21754;SDS011;11039;50.028;19.938;2023-04-21T07:48:10;16.75;;;9.65;;
21754;SDS011;11039;50.028;19.938;2023-04-21T07:50:36;14.75;;;9.15;;
21754;SDS011;11039;50.028;19.938;2023-04-21T07:53:02;14.00;;;9.48;;
21754;SDS011;11039;50.028;19.938;2023-04-21T07:55:29;17.92;;;9.75;;
21754;SDS011;11039;50.028;19.938;2023-04-21T07:57:55;19.95;;;10.00;;
21754;SDS011;11039;50.028;19.938;2023-04-21T08:00:21;18.40;;;9.63;;
21754;SDS011;11039;50.028;19.938;2023-04-21T08:02:47;12.85;;;8.45;;
21754;SDS011;11039;50.028;19.938;2023-04-21T08:05:13;15.40;;;8.73;;
21754;SDS011;11039;50.028;19.938;2023-04-21T08:07:39;14.90;;;8.18;;
21754;SDS011;11039;50.028;19.938;2023-04-21T08:10:06;11.43;;;7.50;;
21754;SDS011;11039;50.028;19.938;2023-04-21T08:12:32;13.40;;;7.45;;
21754;SDS011;11039;50.028;19.938;2023-04-21T08:14:58;16.80;;;8.30;;
21754;SDS011;11039;50.028;19.938;2023-04-21T08:17:29;17.90;;;7.88;;
21754;SDS011;11039;50.028;19.938;2023-04-21T08:19:55;20.05;;;8.05;;
21754;SDS011;11039;50.028;19.938;2023-04-21T08:22:21;15.75;;;7.38;;
21754;SDS011;11039;50.028;19.938;2023-04-21T08:24:47;17.52;;;7.78;;
21754;SDS011;11039;50.028;19.938;2023-04-21T08:27:13;16.02;;;8.02;;
21754;SDS011;11039;50.028;19.938;2023-04-21T08:29:39;15.23;;;7.97;;
21754;SDS011;11039;50.028;19.938;2023-04-21T08:32:05;15.48;;;7.68;;
21754;SDS011;11039;50.028;19.938;2023-04-21T08:34:31;13.38;;;6.90;;
21754;SDS011;11039;50.028;19.938;2023-04-21T08:36:57;12.88;;;6.82;;
21754;SDS011;11039;50.028;19.938;2023-04-21T08:39:23;12.98;;;7.20;;
21754;SDS011;11039;50.028;19.938;2023-04-21T08:41:50;12.85;;;8.00;;
21754;SDS011;11039;50.028;19.938;2023-04-21T08:44:16;14.45;;;8.13;;
21754;SDS011;11039;50.028;19.938;2023-04-21T08:46:52;12.27;;;7.55;;
21754;SDS011;11039;50.028;19.938;2023-04-21T08:49:20;15.50;;;8.50;;
21754;SDS011;11039;50.028;19.938;2023-04-21T08:51:46;15.85;;;8.32;;
21754;SDS011;11039;50.028;19.938;2023-04-21T08:54:12;13.50;;;7.57;;
21754;SDS011;11039;50.028;19.938;2023-04-21T08:56:38;18.85;;;8.30;;
21754;SDS011;11039;50.028;19.938;2023-04-21T08:59:05;14.60;;;8.15;;
21754;SDS011;11039;50.028;19.938;2023-04-21T09:01:31;14.57;;;7.70;;
21754;SDS011;11039;50.028;19.938;2023-04-21T09:04:14;13.25;;;7.75;;
21754;SDS011;11039;50.028;19.938;2023-04-21T09:06:40;12.27;;;7.78;;
21754;SDS011;11039;50.028;19.938;2023-04-21T09:09:10;13.05;;;7.70;;
21754;SDS011;11039;50.028;19.938;2023-04-21T09:11:36;14.77;;;8.50;;
21754;SDS011;11039;50.028;19.938;2023-04-21T09:14:02;13.32;;;8.43;;
21754;SDS011;11039;50.028;19.938;2023-04-21T09:16:30;11.82;;;7.90;;
21754;SDS011;11039;50.028;19.938;2023-04-21T09:18:59;12.38;;;7.35;;
21754;SDS011;11039;50.028;19.938;2023-04-21T09:21:26;13.95;;;7.53;;
21754;SDS011;11039;50.028;19.938;2023-04-21T09:23:52;14.48;;;7.72;;
21754;SDS011;11039;50.028;19.938;2023-04-21T09:26:20;14.35;;;7.90;;
21754;SDS011;11039;50.028;19.938;2023-04-21T09:28:49;14.93;;;8.50;;
21754;SDS011;11039;50.028;19.938;2023-04-21T09:31:16;11.02;;;7.57;;
21754;SDS011;11039;50.028;19.938;2023-04-21T09:33:51;10.93;;;7.43;;
21754;SDS011;11039;50.028;19.938;2023-04-21T09:36:18;12.95;;;7.68;;
21754;SDS011;11039;50.028;19.938;2023-04-21T09:39:03;12.30;;;7.47;;
21754;SDS011;11039;50.028;19.938;2023-04-21T09:41:30;12.60;;;7.90;;
21754;SDS011;11039;50.028;19.938;2023-04-21T09:43:56;12.32;;;7.75;;
21754;SDS011;11039;50.028;19.938;2023-04-21T09:46:25;11.48;;;7.75;;
21754;SDS011;11039;50.028;19.938;2023-04-21T09:48:53;9.80;;;7.85;;
21754;SDS011;11039;50.028;19.938;2023-04-21T09:51:21;12.27;;;7.20;;
21754;SDS011;11039;50.028;19.938;2023-04-21T09:53:50;10.80;;;7.30;;
21754;SDS011;11039;50.028;19.938;2023-04-21T09:56:17;10.23;;;7.40;;
21754;SDS011;11039;50.028;19.938;2023-04-21T09:58:46;11.40;;;6.78;;
21754;SDS011;11039;50.028;19.938;2023-04-21T10:01:13;8.70;;;6.30;;
21754;SDS011;11039;50.028;19.938;2023-04-21T10:03:40;9.50;;;6.53;;
21754;SDS011;11039;50.028;19.938;2023-04-21T10:06:06;8.73;;;6.18;;
21754;SDS011;11039;50.028;19.938;2023-04-21T10:08:32;13.32;;;6.97;;
21754;SDS011;11039;50.028;19.938;2023-04-21T10:10:59;10.95;;;6.28;;
21754;SDS011;11039;50.028;19.938;2023-04-21T10:13:26;10.35;;;5.85;;
21754;SDS011;11039;50.028;19.938;2023-04-21T10:16:02;9.55;;;6.53;;
21754;SDS011;11039;50.028;19.938;2023-04-21T10:18:29;8.43;;;6.13;;
21754;SDS011;11039;50.028;19.938;2023-04-21T10:21:02;7.90;;;5.95;;
21754;SDS011;11039;50.028;19.938;2023-04-21T10:23:28;8.45;;;5.55;;
21754;SDS011;11039;50.028;19.938;2023-04-21T10:39:25;7.45;;;5.25;;
21754;SDS011;11039;50.028;19.938;2023-04-21T10:41:53;7.45;;;5.57;;
21754;SDS011;11039;50.028;19.938;2023-04-21T10:44:20;6.18;;;5.22;;
21754;SDS011;11039;50.028;19.938;2023-04-21T10:46:47;7.60;;;4.90;;
21754;SDS011;11039;50.028;19.938;2023-04-21T10:49:20;8.65;;;4.53;;
21754;SDS011;11039;50.028;19.938;2023-04-21T10:54:28;7.25;;;5.05;;
21754;SDS011;11039;50.028;19.938;2023-04-21T10:56:56;7.10;;;4.82;;
21754;SDS011;11039;50.028;19.938;2023-04-21T10:59:22;8.48;;;4.70;;
21754;SDS011;11039;50.028;19.938;2023-04-21T11:01:49;13.20;;;4.75;;
21754;SDS011;11039;50.028;19.938;2023-04-21T11:04:15;8.40;;;5.07;;
21754;SDS011;11039;50.028;19.938;2023-04-21T11:06:41;9.38;;;5.20;;
21754;SDS011;11039;50.028;19.938;2023-04-21T11:09:07;7.35;;;4.50;;
21754;SDS011;11039;50.028;19.938;2023-04-21T11:11:34;5.93;;;4.70;;
21754;SDS011;11039;50.028;19.938;2023-04-21T11:14:01;7.32;;;4.30;;
21754;SDS011;11039;50.028;19.938;2023-04-21T11:16:27;5.82;;;4.53;;
21754;SDS011;11039;50.028;19.938;2023-04-21T11:18:55;6.82;;;4.50;;
21754;SDS011;11039;50.028;19.938;2023-04-21T11:21:21;7.60;;;4.65;;
21754;SDS011;11039;50.028;19.938;2023-04-21T11:23:49;9.45;;;4.43;;
21754;SDS011;11039;50.028;19.938;2023-04-21T11:26:16;5.95;;;4.30;;
21754;SDS011;11039;50.028;19.938;2023-04-21T11:28:46;6.50;;;4.50;;
21754;SDS011;11039;50.028;19.938;2023-04-21T11:31:13;6.20;;;4.30;;
21754;SDS011;11039;50.028;19.938;2023-04-21T11:33:39;5.97;;;4.32;;
21754;SDS011;11039;50.028;19.938;2023-04-21T11:36:05;5.38;;;4.28;;
21754;SDS011;11039;50.028;19.938;2023-04-21T11:38:38;7.05;;;4.97;;
21754;SDS011;11039;50.028;19.938;2023-04-21T11:41:05;6.65;;;4.38;;
21754;SDS011;11039;50.028;19.938;2023-04-21T11:43:31;5.47;;;4.45;;
21754;SDS011;11039;50.028;19.938;2023-04-21T11:46:12;7.65;;;4.45;;
21754;SDS011;11039;50.028;19.938;2023-04-21T11:48:42;8.05;;;4.50;;
21754;SDS011;11039;50.028;19.938;2023-04-21T11:51:17;6.18;;;4.80;;
21754;SDS011;11039;50.028;19.938;2023-04-21T11:53:45;5.85;;;4.18;;
21754;SDS011;11039;50.028;19.938;2023-04-21T11:56:15;6.57;;;4.85;;
21754;SDS011;11039;50.028;19.938;2023-04-21T11:58:42;5.95;;;4.63;;
21754;SDS011;11039;50.028;19.938;2023-04-21T12:01:10;6.60;;;4.38;;
21754;SDS011;11039;50.028;19.938;2023-04-21T12:03:36;6.50;;;4.45;;
21754;SDS011;11039;50.028;19.938;2023-04-21T12:06:02;6.22;;;4.40;;
21754;SDS011;11039;50.028;19.938;2023-04-21T12:08:28;5.32;;;3.92;;
21754;SDS011;11039;50.028;19.938;2023-04-21T12:10:54;6.47;;;4.18;;
21754;SDS011;11039;50.028;19.938;2023-04-21T12:13:23;5.25;;;4.15;;
21754;SDS011;11039;50.028;19.938;2023-04-21T12:15:49;5.82;;;3.60;;
21754;SDS011;11039;50.028;19.938;2023-04-21T12:18:15;6.55;;;4.32;;
21754;SDS011;11039;50.028;19.938;2023-04-21T12:20:48;6.80;;;3.60;;
21754;SDS011;11039;50.028;19.938;2023-04-21T12:23:14;7.45;;;4.38;;
21754;SDS011;11039;50.028;19.938;2023-04-21T12:25:40;7.13;;;3.80;;
21754;SDS011;11039;50.028;19.938;2023-04-21T12:28:07;6.82;;;3.83;;
21754;SDS011;11039;50.028;19.938;2023-04-21T12:30:33;6.05;;;3.90;;
21754;SDS011;11039;50.028;19.938;2023-04-21T12:32:59;8.25;;;3.85;;
21754;SDS011;11039;50.028;19.938;2023-04-21T12:35:25;4.15;;;3.63;;
21754;SDS011;11039;50.028;19.938;2023-04-21T12:37:52;5.95;;;4.07;;
21754;SDS011;11039;50.028;19.938;2023-04-21T12:40:18;4.60;;;3.58;;
21754;SDS011;11039;50.028;19.938;2023-04-21T12:42:44;6.47;;;3.80;;
21754;SDS011;11039;50.028;19.938;2023-04-21T12:45:10;4.53;;;3.53;;
21754;SDS011;11039;50.028;19.938;2023-04-21T12:47:37;6.13;;;3.70;;
21754;SDS011;11039;50.028;19.938;2023-04-21T12:50:03;5.47;;;3.50;;
21754;SDS011;11039;50.028;19.938;2023-04-21T12:52:29;4.32;;;3.60;;
21754;SDS011;11039;50.028;19.938;2023-04-21T12:54:55;4.20;;;3.80;;
21754;SDS011;11039;50.028;19.938;2023-04-21T12:57:21;7.75;;;4.10;;
21754;SDS011;11039;50.028;19.938;2023-04-21T12:59:47;5.18;;;3.67;;
21754;SDS011;11039;50.028;19.938;2023-04-21T13:02:13;4.18;;;3.50;;
21754;SDS011;11039;50.028;19.938;2023-04-21T13:04:40;5.72;;;4.00;;
21754;SDS011;11039;50.028;19.938;2023-04-21T13:07:06;5.93;;;3.50;;
21754;SDS011;11039;50.028;19.938;2023-04-21T13:09:32;4.38;;;3.35;;
21754;SDS011;11039;50.028;19.938;2023-04-21T13:11:58;3.85;;;3.38;;
21754;SDS011;11039;50.028;19.938;2023-04-21T13:14:26;4.32;;;3.88;;
21754;SDS011;11039;50.028;19.938;2023-04-21T13:16:52;4.03;;;3.40;;
21754;SDS011;11039;50.028;19.938;2023-04-21T13:19:18;4.55;;;3.88;;
21754;SDS011;11039;50.028;19.938;2023-04-21T13:21:44;3.50;;;3.10;;
21754;SDS011;11039;50.028;19.938;2023-04-21T13:24:10;4.30;;;3.35;;
21754;SDS011;11039;50.028;19.938;2023-04-21T13:26:37;3.95;;;3.47;;
21754;SDS011;11039;50.028;19.938;2023-04-21T13:29:03;8.55;;;3.67;;
21754;SDS011;11039;50.028;19.938;2023-04-21T13:31:29;4.65;;;3.15;;
21754;SDS011;11039;50.028;19.938;2023-04-21T13:33:56;4.47;;;2.90;;
21754;SDS011;11039;50.028;19.938;2023-04-21T13:36:22;3.90;;;3.13;;
21754;SDS011;11039;50.028;19.938;2023-04-21T13:38:48;4.82;;;3.67;;
21754;SDS011;11039;50.028;19.938;2023-04-21T13:41:15;6.68;;;3.72;;
21754;SDS011;11039;50.028;19.938;2023-04-21T13:43:41;4.82;;;3.42;;
21754;SDS011;11039;50.028;19.938;2023-04-21T13:46:07;6.03;;;3.63;;
21754;SDS011;11039;50.028;19.938;2023-04-21T13:48:33;5.25;;;3.22;;
21754;SDS011;11039;50.028;19.938;2023-04-21T13:51:00;5.03;;;3.92;;
21754;SDS011;11039;50.028;19.938;2023-04-21T13:53:26;4.10;;;3.33;;
21754;SDS011;11039;50.028;19.938;2023-04-21T13:55:52;4.85;;;3.42;;
21754;SDS011;11039;50.028;19.938;2023-04-21T13:58:20;7.75;;;4.13;;
21754;SDS011;11039;50.028;19.938;2023-04-21T14:00:46;4.60;;;3.30;;
21754;SDS011;11039;50.028;19.938;2023-04-21T14:03:12;4.00;;;3.20;;
21754;SDS011;11039;50.028;19.938;2023-04-21T14:05:39;5.28;;;3.50;;
21754;SDS011;11039;50.028;19.938;2023-04-21T14:08:05;6.30;;;3.92;;
21754;SDS011;11039;50.028;19.938;2023-04-21T14:10:31;6.28;;;3.33;;
21754;SDS011;11039;50.028;19.938;2023-04-21T14:12:57;4.00;;;3.60;;
21754;SDS011;11039;50.028;19.938;2023-04-21T14:15:24;6.13;;;3.78;;
21754;SDS011;11039;50.028;19.938;2023-04-21T14:17:50;3.33;;;3.03;;
21754;SDS011;11039;50.028;19.938;2023-04-21T14:20:17;3.20;;;2.90;;
21754;SDS011;11039;50.028;19.938;2023-04-21T14:22:43;4.60;;;3.45;;
21754;SDS011;11039;50.028;19.938;2023-04-21T14:25:09;3.83;;;3.10;;
21754;SDS011;11039;50.028;19.938;2023-04-21T14:27:35;3.72;;;3.20;;
21754;SDS011;11039;50.028;19.938;2023-04-21T14:30:01;3.63;;;3.03;;
21754;SDS011;11039;50.028;19.938;2023-04-21T14:32:27;5.07;;;3.35;;
21754;SDS011;11039;50.028;19.938;2023-04-21T14:34:53;4.50;;;3.17;;
21754;SDS011;11039;50.028;19.938;2023-04-21T14:37:22;3.83;;;3.10;;
21754;SDS011;11039;50.028;19.938;2023-04-21T14:39:48;4.72;;;3.28;;
21754;SDS011;11039;50.028;19.938;2023-04-21T14:42:15;4.35;;;3.22;;